Austin, Texas
Traffic Map
Current Weather Conditions
Austin, Texas
Clear
Clear
19°
Feels Like: 19°
Wind Chill: 19° Ceiling: Unl
Heat Index: 19° Visibility: 10mi
Dew Point: 16° Wind: 3mph
Humidity: 79% Direction: ° ()
Pressure: 30.08in Gusts: 0mph
Raw Report DataKATT 260651Z AUTO VRB03KT 10SM CLR 19/16 A3008 RMK AO2 SLP175 T01940156
Traffic Incident Summary
Active as of:
Severity:
Category:
InformationThere was an issue retrieving the traffic information for this location. Please try a different location or try again shortly.
Advertisements
Track Severe Weather on mobile